createdAt,value
2022-12-25T00:00:00.469Z,99905
2022-12-25T00:01:10.486Z,99905
2022-12-25T00:02:00.469Z,99905
2022-12-25T00:03:00.709Z,99901
2022-12-25T00:04:00.765Z,99901
2022-12-25T00:05:00.492Z,99901
2022-12-25T00:06:00.477Z,99901
2022-12-25T00:07:00.480Z,99901
2022-12-25T00:08:00.497Z,99904
2022-12-25T00:09:00.465Z,99904
2022-12-25T00:10:00.455Z,99904
2022-12-25T00:11:01.879Z,99904
2022-12-25T00:12:00.477Z,99904
2022-12-25T00:13:00.521Z,99899
2022-12-25T00:14:00.539Z,99899
2022-12-25T00:15:00.480Z,99899
2022-12-25T00:16:03.929Z,99899
2022-12-25T00:17:00.498Z,99899
2022-12-25T00:18:00.450Z,99887
2022-12-25T00:19:00.519Z,99887
2022-12-25T00:20:00.493Z,99887
2022-12-25T00:21:01.975Z,99887
2022-12-25T00:22:00.550Z,99887
2022-12-25T00:23:00.496Z,99893
2022-12-25T00:24:00.480Z,99893
2022-12-25T00:25:00.491Z,99893
2022-12-25T00:26:03.284Z,99893
2022-12-25T00:27:00.492Z,99893
2022-12-25T00:28:00.484Z,99902
2022-12-25T00:29:00.516Z,99902
2022-12-25T00:30:00.546Z,99902
2022-12-25T00:31:04.982Z,99902
2022-12-25T00:32:00.718Z,99902
2022-12-25T00:33:00.490Z,99903
2022-12-25T00:34:00.475Z,99903
2022-12-25T00:35:00.561Z,99903
2022-12-25T00:36:00.853Z,99903
2022-12-25T00:37:00.528Z,99903
2022-12-25T00:38:00.483Z,99908
2022-12-25T00:39:00.797Z,99908
2022-12-25T00:40:00.499Z,99908
2022-12-25T00:41:04.836Z,99908
2022-12-25T00:42:00.472Z,99908
2022-12-25T00:43:00.491Z,99903
2022-12-25T00:44:00.526Z,99903
2022-12-25T00:45:00.493Z,99903
2022-12-25T00:46:01.713Z,99903
2022-12-25T00:47:00.679Z,99903
2022-12-25T00:48:00.510Z,99896
2022-12-25T00:49:00.519Z,99896
2022-12-25T00:50:00.475Z,99896
2022-12-25T00:51:03.646Z,99896
2022-12-25T00:52:00.559Z,99896
2022-12-25T00:53:00.497Z,99891
2022-12-25T00:54:00.627Z,99891
2022-12-25T00:55:00.454Z,99891
2022-12-25T00:56:02.542Z,99891
2022-12-25T00:57:00.762Z,99891
2022-12-25T00:58:00.467Z,99898
2022-12-25T00:59:00.457Z,99898
2022-12-25T01:00:00.481Z,99898
2022-12-25T01:01:00.755Z,99898
2022-12-25T01:02:01.029Z,99898
2022-12-25T01:03:00.634Z,99889
2022-12-25T01:04:00.460Z,99889
2022-12-25T01:05:00.477Z,99889
2022-12-25T01:06:01.799Z,99889
2022-12-25T01:07:00.463Z,99889
2022-12-25T01:08:00.472Z,99887
2022-12-25T01:09:00.545Z,99887
2022-12-25T01:10:00.460Z,99887
2022-12-25T01:11:03.451Z,99887
2022-12-25T01:12:00.445Z,99887
2022-12-25T01:13:00.644Z,99888
2022-12-25T01:14:00.504Z,99888
2022-12-25T01:15:00.752Z,99888
2022-12-25T01:16:08.499Z,99888
2022-12-25T01:17:00.479Z,99888
2022-12-25T01:18:04.066Z,99886
2022-12-25T01:19:00.504Z,99886
2022-12-25T01:20:00.917Z,99886
2022-12-25T01:21:08.831Z,99886
2022-12-25T01:22:00.489Z,99886
2022-12-25T01:23:00.492Z,99884
2022-12-25T01:24:00.508Z,99884
2022-12-25T01:25:00.611Z,99884
2022-12-25T01:26:04.458Z,99884
2022-12-25T01:27:00.460Z,99884
2022-12-25T01:28:00.479Z,99875
2022-12-25T01:29:00.461Z,99875
2022-12-25T01:30:00.485Z,99875
2022-12-25T01:31:00.717Z,99875
2022-12-25T01:32:00.546Z,99875
2022-12-25T01:33:00.464Z,99885
2022-12-25T01:34:00.479Z,99885
2022-12-25T01:35:00.486Z,99885
2022-12-25T01:36:00.476Z,99885
2022-12-25T01:37:00.464Z,99885
2022-12-25T01:38:00.485Z,99899
2022-12-25T01:39:00.486Z,99899
2022-12-25T01:40:00.470Z,99899
2022-12-25T01:41:00.472Z,99899
2022-12-25T01:42:00.515Z,99899
2022-12-25T01:43:00.498Z,99895
2022-12-25T01:44:05.420Z,99895
2022-12-25T01:45:10.363Z,99895
2022-12-25T01:46:00.542Z,99895
2022-12-25T01:47:01.299Z,99895
2022-12-25T01:48:02.393Z,99896
2022-12-25T01:49:03.812Z,99896
2022-12-25T01:50:00.506Z,99896
2022-12-25T01:51:05.051Z,99896
2022-12-25T01:52:03.951Z,99896
2022-12-25T01:53:01.613Z,99896
2022-12-25T01:54:02.772Z,99896
2022-12-25T01:55:01.736Z,99896
2022-12-25T01:56:04.078Z,99896
2022-12-25T01:57:01.990Z,99896
2022-12-25T01:58:00.656Z,99896
2022-12-25T01:59:01.095Z,99896
2022-12-25T02:00:00.834Z,99896
2022-12-25T02:01:00.490Z,99896
2022-12-25T02:02:00.732Z,99896
2022-12-25T02:03:00.732Z,99894
2022-12-25T02:04:05.722Z,99894
2022-12-25T02:05:03.003Z,99894
2022-12-25T02:06:01.003Z,99894
2022-12-25T02:07:00.834Z,99894
2022-12-25T02:08:03.473Z,99900
2022-12-25T02:09:00.697Z,99900
2022-12-25T02:10:00.486Z,99900
2022-12-25T02:11:00.484Z,99900
2022-12-25T02:12:00.545Z,99900
2022-12-25T02:13:00.968Z,99896
2022-12-25T02:14:00.685Z,99896
2022-12-25T02:15:05.782Z,99896
2022-12-25T02:16:00.488Z,99896
2022-12-25T02:17:05.912Z,99896
2022-12-25T02:18:05.995Z,99901
2022-12-25T02:19:06.608Z,99901
2022-12-25T02:20:10.356Z,99901
2022-12-25T02:21:00.432Z,99901
2022-12-25T02:22:07.388Z,99901
2022-12-25T02:23:10.365Z,99908
2022-12-25T02:24:10.370Z,99908
2022-12-25T02:25:01.467Z,99908
2022-12-25T02:26:00.454Z,99908
2022-12-25T02:27:10.380Z,99908
2022-12-25T02:28:07.048Z,99911
2022-12-25T02:29:03.760Z,99911
2022-12-25T02:30:09.109Z,99911
2022-12-25T02:31:04.732Z,99911
2022-12-25T02:32:04.353Z,99911
2022-12-25T02:33:04.778Z,99914
2022-12-25T02:34:03.724Z,99914
2022-12-25T02:35:00.467Z,99914
2022-12-25T02:36:04.537Z,99914
2022-12-25T02:37:04.953Z,99914
2022-12-25T02:38:03.795Z,99906
2022-12-25T02:39:01.317Z,99906
2022-12-25T02:40:04.718Z,99906
2022-12-25T02:41:04.309Z,99906
2022-12-25T02:42:01.878Z,99906
2022-12-25T02:43:00.461Z,99899
2022-12-25T02:44:02.546Z,99899
2022-12-25T02:45:00.894Z,99899
2022-12-25T02:46:04.630Z,99899
2022-12-25T02:47:01.385Z,99899
2022-12-25T02:48:00.651Z,99893
2022-12-25T02:49:02.848Z,99893
2022-12-25T02:50:01.236Z,99893
2022-12-25T02:51:02.931Z,99893
2022-12-25T02:52:04.801Z,99893
2022-12-25T02:53:02.401Z,99892
2022-12-25T02:54:02.639Z,99892
2022-12-25T02:55:04.333Z,99892
2022-12-25T02:56:00.725Z,99892
2022-12-25T02:57:02.185Z,99892
2022-12-25T02:58:03.167Z,99884
2022-12-25T02:59:00.921Z,99884
2022-12-25T03:00:01.104Z,99884
2022-12-25T03:01:03.913Z,99884
2022-12-25T03:02:01.915Z,99884
2022-12-25T03:03:03.325Z,99882
2022-12-25T03:04:03.460Z,99882
2022-12-25T03:05:03.696Z,99882
2022-12-25T03:06:02.329Z,99882
2022-12-25T03:07:03.262Z,99882
2022-12-25T03:08:05.371Z,99881
2022-12-25T03:09:01.694Z,99881
2022-12-25T03:10:03.989Z,99881
2022-12-25T03:11:03.216Z,99881
2022-12-25T03:12:04.403Z,99881
2022-12-25T03:13:10.381Z,99880
2022-12-25T03:14:03.525Z,99880
2022-12-25T03:15:00.758Z,99880
2022-12-25T03:16:00.695Z,99880
2022-12-25T03:17:00.545Z,99880
2022-12-25T03:18:02.288Z,99879
2022-12-25T03:19:00.625Z,99879
2022-12-25T03:20:00.745Z,99879
2022-12-25T03:21:01.513Z,99879
2022-12-25T03:22:00.695Z,99879
2022-12-25T03:23:01.017Z,99871
2022-12-25T03:24:00.705Z,99871
2022-12-25T03:25:02.422Z,99871
2022-12-25T03:26:00.620Z,99871
2022-12-25T03:27:00.637Z,99871
2022-12-25T03:28:01.078Z,99870
2022-12-25T03:29:00.595Z,99870
2022-12-25T03:30:00.809Z,99870
2022-12-25T03:31:10.507Z,99870
2022-12-25T03:32:07.504Z,99870
2022-12-25T03:33:17.949Z,99863
2022-12-25T03:34:03.768Z,99863
2022-12-25T03:35:06.653Z,99863
2022-12-25T03:36:06.168Z,99863
2022-12-25T03:37:10.391Z,99863
2022-12-25T03:38:10.417Z,99852
2022-12-25T03:39:05.271Z,99852
2022-12-25T03:40:10.359Z,99852
2022-12-25T03:41:05.865Z,99852
2022-12-25T03:42:04.398Z,99852
2022-12-25T03:43:08.967Z,99849
2022-12-25T03:44:01.607Z,99849
2022-12-25T03:45:01.491Z,99849
2022-12-25T03:46:04.724Z,99849
2022-12-25T03:47:09.236Z,99849
2022-12-25T03:48:03.629Z,99841
2022-12-25T03:49:10.365Z,99841
2022-12-25T03:50:10.390Z,99841
2022-12-25T03:51:02.434Z,99841
2022-12-25T03:52:01.832Z,99841
2022-12-25T03:53:01.858Z,99846
2022-12-25T03:54:03.287Z,99846
2022-12-25T03:55:03.375Z,99846
2022-12-25T03:56:01.186Z,99846
2022-12-25T03:57:00.491Z,99846
2022-12-25T03:58:00.572Z,99845
2022-12-25T03:59:00.503Z,99845
2022-12-25T04:00:00.545Z,99845
2022-12-25T04:01:00.674Z,99845
2022-12-25T04:02:00.614Z,99845
2022-12-25T04:03:00.507Z,99842
2022-12-25T04:04:00.624Z,99842
2022-12-25T04:05:00.479Z,99842
2022-12-25T04:06:00.493Z,99842
2022-12-25T04:07:00.436Z,99842
2022-12-25T04:08:00.491Z,99841
2022-12-25T04:09:00.485Z,99841
2022-12-25T04:10:00.458Z,99841
2022-12-25T04:11:00.500Z,99841
2022-12-25T04:12:02.880Z,99841
2022-12-25T04:13:00.477Z,99836
2022-12-25T04:14:00.451Z,99836
2022-12-25T04:15:04.138Z,99836
2022-12-25T04:16:00.504Z,99836
2022-12-25T04:17:00.451Z,99836
2022-12-25T04:18:00.437Z,99831
2022-12-25T04:19:00.543Z,99831
2022-12-25T04:20:00.449Z,99831
2022-12-25T04:21:00.483Z,99831
2022-12-25T04:22:00.453Z,99831
2022-12-25T04:23:00.471Z,99832
2022-12-25T04:24:00.471Z,99832
2022-12-25T04:25:00.508Z,99832
2022-12-25T04:26:00.452Z,99832
2022-12-25T04:27:00.479Z,99832
2022-12-25T04:28:01.097Z,99832
2022-12-25T04:29:00.458Z,99832
2022-12-25T04:30:00.465Z,99832
2022-12-25T04:31:00.536Z,99832
2022-12-25T04:32:00.562Z,99832
2022-12-25T04:33:00.474Z,99833
2022-12-25T04:34:00.453Z,99833
2022-12-25T04:35:00.459Z,99833
2022-12-25T04:36:00.447Z,99833
2022-12-25T04:37:00.467Z,99833
2022-12-25T04:38:00.474Z,99826
2022-12-25T04:39:00.455Z,99826
2022-12-25T04:40:00.532Z,99826
2022-12-25T04:41:00.644Z,99826
2022-12-25T04:42:00.517Z,99826
2022-12-25T04:43:00.492Z,99821
2022-12-25T04:44:00.495Z,99821
2022-12-25T04:45:00.526Z,99821
2022-12-25T04:46:01.133Z,99821
2022-12-25T04:47:02.533Z,99821
2022-12-25T04:48:00.497Z,99808
2022-12-25T04:49:00.488Z,99808
2022-12-25T04:50:00.454Z,99808
2022-12-25T04:51:10.379Z,99808
2022-12-25T04:52:00.484Z,99808
2022-12-25T04:53:00.451Z,99800
2022-12-25T04:54:00.516Z,99800
2022-12-25T04:55:00.468Z,99800
2022-12-25T04:56:00.823Z,99800
2022-12-25T04:57:00.469Z,99800
2022-12-25T04:58:00.458Z,99801
2022-12-25T04:59:00.476Z,99801
2022-12-25T05:00:00.447Z,99801
2022-12-25T05:01:00.745Z,99801
2022-12-25T05:02:01.171Z,99801
2022-12-25T05:03:00.782Z,99810
2022-12-25T05:04:00.605Z,99810
2022-12-25T05:05:00.477Z,99810
2022-12-25T05:06:01.095Z,99810
2022-12-25T05:07:00.495Z,99810
2022-12-25T05:08:00.444Z,99809
2022-12-25T05:09:00.471Z,99809
2022-12-25T05:10:00.451Z,99809
2022-12-25T05:11:04.296Z,99809
2022-12-25T05:12:00.445Z,99809
2022-12-25T05:13:00.509Z,99805
2022-12-25T05:14:00.449Z,99805
2022-12-25T05:15:00.462Z,99805
2022-12-25T05:16:03.477Z,99805
2022-12-25T05:17:00.607Z,99805
2022-12-25T05:18:00.447Z,99791
2022-12-25T05:19:01.116Z,99791
2022-12-25T05:20:00.461Z,99791
2022-12-25T05:21:00.510Z,99791
2022-12-25T05:22:00.461Z,99791
2022-12-25T05:23:00.463Z,99796
2022-12-25T05:24:00.472Z,99796
2022-12-25T05:25:00.459Z,99796
2022-12-25T05:26:04.577Z,99796
2022-12-25T05:27:00.455Z,99796
2022-12-25T05:28:00.454Z,99793
2022-12-25T05:29:00.515Z,99793
2022-12-25T05:30:00.465Z,99793
2022-12-25T05:31:00.494Z,99793
2022-12-25T05:32:00.647Z,99793
2022-12-25T05:33:01.476Z,99792
2022-12-25T05:34:00.459Z,99792
2022-12-25T05:35:00.471Z,99792
2022-12-25T05:36:02.708Z,99792
2022-12-25T05:37:00.556Z,99792
2022-12-25T05:38:00.439Z,99794
2022-12-25T05:39:00.488Z,99794
2022-12-25T05:40:00.721Z,99794
2022-12-25T05:41:00.611Z,99794
2022-12-25T05:42:00.439Z,99794
2022-12-25T05:43:00.491Z,99793
2022-12-25T05:44:00.953Z,99793
2022-12-25T05:45:00.458Z,99793
2022-12-25T05:46:04.762Z,99793
2022-12-25T05:47:00.609Z,99793
2022-12-25T05:48:00.627Z,99783
2022-12-25T05:49:00.483Z,99783
2022-12-25T05:50:00.499Z,99783
2022-12-25T05:51:04.592Z,99783
2022-12-25T05:52:00.511Z,99783
2022-12-25T05:53:06.087Z,99783
2022-12-25T05:54:00.519Z,99783
2022-12-25T05:55:00.456Z,99783
2022-12-25T05:56:01.586Z,99783
2022-12-25T05:57:00.963Z,99783
2022-12-25T05:58:00.455Z,99780
2022-12-25T05:59:00.486Z,99780
2022-12-25T06:00:00.518Z,99780
2022-12-25T06:01:02.533Z,99780
2022-12-25T06:02:00.660Z,99780
2022-12-25T06:03:00.813Z,99790
2022-12-25T06:04:04.579Z,99790
2022-12-25T06:05:00.817Z,99790
2022-12-25T06:06:01.659Z,99790
2022-12-25T06:07:00.455Z,99790
2022-12-25T06:08:00.500Z,99786
2022-12-25T06:09:00.482Z,99786
2022-12-25T06:10:00.466Z,99786
2022-12-25T06:11:02.521Z,99786
2022-12-25T06:12:00.561Z,99786
2022-12-25T06:13:00.461Z,99783
2022-12-25T06:14:00.512Z,99783
2022-12-25T06:15:00.520Z,99783
2022-12-25T06:16:08.651Z,99783
2022-12-25T06:17:00.540Z,99783
2022-12-25T06:18:00.452Z,99778
2022-12-25T06:19:00.447Z,99778
2022-12-25T06:20:00.519Z,99778
2022-12-25T06:21:00.448Z,99778
2022-12-25T06:22:00.499Z,99778
2022-12-25T06:23:00.597Z,99774
2022-12-25T06:24:00.623Z,99774
2022-12-25T06:25:00.464Z,99774
2022-12-25T06:26:02.640Z,99774
2022-12-25T06:27:00.451Z,99774
2022-12-25T06:28:00.516Z,99776
2022-12-25T06:29:00.487Z,99776
2022-12-25T06:30:00.482Z,99776
2022-12-25T06:31:08.559Z,99776
2022-12-25T06:32:00.553Z,99776
2022-12-25T06:33:00.468Z,99770
2022-12-25T06:34:00.495Z,99770
2022-12-25T06:35:00.671Z,99770
2022-12-25T06:36:04.564Z,99770
2022-12-25T06:37:00.485Z,99770
2022-12-25T06:38:00.455Z,99770
2022-12-25T06:39:00.518Z,99770
2022-12-25T06:40:00.455Z,99770
2022-12-25T06:41:02.460Z,99770
2022-12-25T06:42:00.507Z,99770
2022-12-25T06:43:00.561Z,99777
2022-12-25T06:44:00.512Z,99777
2022-12-25T06:45:00.529Z,99777
2022-12-25T06:46:04.842Z,99777
2022-12-25T06:47:00.457Z,99777
2022-12-25T06:48:00.723Z,99771
2022-12-25T06:49:00.478Z,99771
2022-12-25T06:50:00.480Z,99771
2022-12-25T06:51:00.723Z,99771
2022-12-25T06:52:00.467Z,99771
2022-12-25T06:53:00.455Z,99770
2022-12-25T06:54:01.033Z,99770
2022-12-25T06:55:00.475Z,99770
2022-12-25T06:56:02.899Z,99770
2022-12-25T06:57:00.481Z,99770
2022-12-25T06:58:00.444Z,99769
2022-12-25T06:59:02.260Z,99769
2022-12-25T07:00:00.470Z,99769
2022-12-25T07:01:07.059Z,99769
2022-12-25T07:02:00.653Z,99769
2022-12-25T07:03:00.600Z,99763
2022-12-25T07:04:02.264Z,99763
2022-12-25T07:05:00.947Z,99763
2022-12-25T07:06:00.445Z,99763
2022-12-25T07:07:08.140Z,99763
2022-12-25T07:08:00.488Z,99767
2022-12-25T07:09:00.462Z,99767
2022-12-25T07:10:00.440Z,99767
2022-12-25T07:11:00.475Z,99767
2022-12-25T07:12:03.014Z,99767
2022-12-25T07:13:00.450Z,99775
2022-12-25T07:14:00.501Z,99775
2022-12-25T07:15:00.449Z,99775
2022-12-25T07:16:01.834Z,99775
2022-12-25T07:17:00.714Z,99775
2022-12-25T07:18:00.523Z,99757
2022-12-25T07:19:00.545Z,99757
2022-12-25T07:20:00.594Z,99757
2022-12-25T07:21:08.612Z,99757
2022-12-25T07:22:00.478Z,99757
2022-12-25T07:23:00.460Z,99757
2022-12-25T07:24:00.455Z,99757
2022-12-25T07:25:00.465Z,99757
2022-12-25T07:26:00.900Z,99757
2022-12-25T07:27:00.457Z,99757
2022-12-25T07:28:00.444Z,99754
2022-12-25T07:29:00.459Z,99754
2022-12-25T07:30:00.486Z,99754
2022-12-25T07:31:01.633Z,99754
2022-12-25T07:32:00.484Z,99754
2022-12-25T07:33:00.513Z,99772
2022-12-25T07:34:00.445Z,99772
2022-12-25T07:35:00.446Z,99772
2022-12-25T07:36:00.895Z,99772
2022-12-25T07:37:00.460Z,99772
2022-12-25T07:38:00.446Z,99782
2022-12-25T07:39:00.475Z,99782
2022-12-25T07:40:00.506Z,99782
2022-12-25T07:41:00.500Z,99782
2022-12-25T07:42:00.453Z,99782
2022-12-25T07:43:00.547Z,99782
2022-12-25T07:44:00.503Z,99782
2022-12-25T07:45:00.440Z,99782
2022-12-25T07:46:00.732Z,99782
2022-12-25T07:47:00.450Z,99782
2022-12-25T07:48:05.246Z,99785
2022-12-25T07:49:00.467Z,99785
2022-12-25T07:50:00.457Z,99785
2022-12-25T07:51:02.132Z,99785
2022-12-25T07:52:00.456Z,99785
2022-12-25T07:53:00.497Z,99786
2022-12-25T07:54:00.467Z,99786
2022-12-25T07:55:00.482Z,99786
2022-12-25T07:56:01.541Z,99786
2022-12-25T07:57:00.460Z,99786
2022-12-25T07:58:00.481Z,99790
2022-12-25T07:59:00.478Z,99790
2022-12-25T08:00:00.561Z,99790
2022-12-25T08:01:02.302Z,99790
2022-12-25T08:02:00.667Z,99790
2022-12-25T08:03:00.796Z,99783
2022-12-25T08:04:01.193Z,99783
2022-12-25T08:05:00.452Z,99783
2022-12-25T08:06:01.316Z,99783
2022-12-25T08:07:00.449Z,99783
2022-12-25T08:08:00.463Z,99780
2022-12-25T08:09:04.443Z,99780
2022-12-25T08:10:01.443Z,99780
2022-12-25T08:11:00.503Z,99780
2022-12-25T08:12:00.479Z,99780
2022-12-25T08:13:00.477Z,99766
2022-12-25T08:14:00.755Z,99766
2022-12-25T08:15:00.460Z,99766
2022-12-25T08:16:01.562Z,99766
2022-12-25T08:17:00.495Z,99766
2022-12-25T08:18:00.456Z,99759
2022-12-25T08:19:00.493Z,99759
2022-12-25T08:20:00.446Z,99759
2022-12-25T08:21:09.345Z,99759
2022-12-25T08:22:00.503Z,99759
2022-12-25T08:23:00.477Z,99754
2022-12-25T08:24:00.554Z,99754
2022-12-25T08:25:00.459Z,99754
2022-12-25T08:26:05.163Z,99754
2022-12-25T08:27:00.451Z,99754
2022-12-25T08:28:00.448Z,99754
2022-12-25T08:29:00.790Z,99754
2022-12-25T08:30:00.521Z,99754
2022-12-25T08:31:10.465Z,99754
2022-12-25T08:32:00.454Z,99754
2022-12-25T08:33:00.611Z,99749
2022-12-25T08:34:01.773Z,99749
2022-12-25T08:35:00.464Z,99749
2022-12-25T08:36:01.363Z,99749
2022-12-25T08:37:00.471Z,99749
2022-12-25T08:38:00.668Z,99767
2022-12-25T08:39:03.089Z,99767
2022-12-25T08:40:00.455Z,99767
2022-12-25T08:41:00.541Z,99767
2022-12-25T08:42:00.473Z,99767
2022-12-25T08:43:00.578Z,99766
2022-12-25T08:44:00.495Z,99766
2022-12-25T08:45:00.522Z,99766
2022-12-25T08:46:00.943Z,99766
2022-12-25T08:47:00.446Z,99766
2022-12-25T08:48:00.487Z,99778
2022-12-25T08:49:00.436Z,99778
2022-12-25T08:50:00.477Z,99778
2022-12-25T08:51:01.002Z,99778
2022-12-25T08:52:00.475Z,99778
2022-12-25T08:53:00.564Z,99780
2022-12-25T08:54:00.817Z,99780
2022-12-25T08:55:00.473Z,99780
2022-12-25T08:56:01.644Z,99780
2022-12-25T08:57:02.930Z,99780
2022-12-25T08:58:00.450Z,99792
2022-12-25T08:59:00.467Z,99792
2022-12-25T09:00:00.452Z,99792
2022-12-25T09:01:00.539Z,99792
2022-12-25T09:02:00.574Z,99792
2022-12-25T09:03:00.916Z,99800
2022-12-25T09:04:00.452Z,99800
2022-12-25T09:05:00.747Z,99800
2022-12-25T09:06:04.860Z,99800
2022-12-25T09:07:00.444Z,99800
2022-12-25T09:08:00.489Z,99809
2022-12-25T09:09:00.489Z,99809
2022-12-25T09:10:00.460Z,99809
2022-12-25T09:11:09.268Z,99809
2022-12-25T09:12:00.446Z,99809
2022-12-25T09:13:00.446Z,99815
2022-12-25T09:14:00.498Z,99815
2022-12-25T09:15:00.455Z,99815
2022-12-25T09:16:04.332Z,99815
2022-12-25T09:17:00.520Z,99815
2022-12-25T09:18:00.458Z,99822
2022-12-25T09:19:00.676Z,99822
2022-12-25T09:20:00.537Z,99822
2022-12-25T09:21:01.440Z,99822
2022-12-25T09:22:00.478Z,99822
2022-12-25T09:23:00.450Z,99822
2022-12-25T09:24:00.451Z,99822
2022-12-25T09:25:00.471Z,99822
2022-12-25T09:26:01.361Z,99822
2022-12-25T09:27:00.452Z,99822
2022-12-25T09:28:00.435Z,99822
2022-12-25T09:29:00.454Z,99822
2022-12-25T09:30:00.548Z,99822
2022-12-25T09:31:01.118Z,99822
2022-12-25T09:32:00.471Z,99822
2022-12-25T09:33:00.458Z,99814
2022-12-25T09:34:00.489Z,99814
2022-12-25T09:35:00.479Z,99814
2022-12-25T09:36:04.403Z,99814
2022-12-25T09:37:00.879Z,99814
2022-12-25T09:38:00.500Z,99815
2022-12-25T09:39:00.460Z,99815
2022-12-25T09:40:00.632Z,99815
2022-12-25T09:41:02.031Z,99815
2022-12-25T09:42:03.263Z,99815
2022-12-25T09:43:01.747Z,99814
2022-12-25T09:44:10.373Z,99814
2022-12-25T09:45:03.346Z,99814
2022-12-25T09:46:01.085Z,99814
2022-12-25T09:47:04.030Z,99814
2022-12-25T09:48:01.025Z,99811
2022-12-25T09:49:03.429Z,99811
2022-12-25T09:50:10.371Z,99811
2022-12-25T09:51:08.296Z,99811
2022-12-25T09:52:04.186Z,99811
2022-12-25T09:53:04.536Z,99804
2022-12-25T09:54:05.869Z,99804
2022-12-25T09:55:14.766Z,99804
2022-12-25T09:56:08.108Z,99804
2022-12-25T09:57:00.638Z,99804
2022-12-25T09:58:01.204Z,99810
2022-12-25T09:59:00.473Z,99810
2022-12-25T10:00:00.470Z,99810
2022-12-25T10:01:10.393Z,99810
2022-12-25T10:02:10.549Z,99810
2022-12-25T10:03:10.493Z,99809
2022-12-25T10:04:09.093Z,99809
2022-12-25T10:05:10.381Z,99809
2022-12-25T10:06:06.263Z,99809
2022-12-25T10:07:10.365Z,99809
2022-12-25T10:08:03.730Z,99808
2022-12-25T10:09:10.379Z,99808
2022-12-25T10:10:01.467Z,99808
2022-12-25T10:11:10.360Z,99808
2022-12-25T10:12:01.462Z,99808
2022-12-25T10:13:08.555Z,99799
2022-12-25T10:14:01.465Z,99799
2022-12-25T10:15:00.456Z,99799
2022-12-25T10:16:07.831Z,99799
2022-12-25T10:17:10.367Z,99799
2022-12-25T10:18:00.433Z,99800
2022-12-25T10:19:10.378Z,99800
2022-12-25T10:20:10.372Z,99800
2022-12-25T10:21:02.488Z,99800
2022-12-25T10:22:02.730Z,99800
2022-12-25T10:23:02.749Z,99810
2022-12-25T10:24:10.368Z,99810
2022-12-25T10:25:01.432Z,99810
2022-12-25T10:26:00.713Z,99810
2022-12-25T10:27:02.111Z,99810
2022-12-25T10:28:03.233Z,99815
2022-12-25T10:29:05.517Z,99815
2022-12-25T10:30:00.815Z,99815
2022-12-25T10:31:04.733Z,99815
2022-12-25T10:32:00.526Z,99815
2022-12-25T10:33:00.520Z,99818
2022-12-25T10:34:00.972Z,99818
2022-12-25T10:35:00.483Z,99818
2022-12-25T10:36:00.711Z,99818
2022-12-25T10:37:00.479Z,99818
2022-12-25T10:38:05.147Z,99807
2022-12-25T10:39:00.574Z,99807
2022-12-25T10:40:00.595Z,99807
2022-12-25T10:41:01.472Z,99807
2022-12-25T10:42:07.320Z,99807
2022-12-25T10:43:07.134Z,99815
2022-12-25T10:44:10.360Z,99815
2022-12-25T10:45:01.805Z,99815
2022-12-25T10:46:00.577Z,99815
2022-12-25T10:47:01.639Z,99815
2022-12-25T10:48:07.183Z,99811
2022-12-25T10:49:01.737Z,99811
2022-12-25T10:50:06.280Z,99811
2022-12-25T10:51:00.807Z,99811
2022-12-25T10:52:00.637Z,99811
2022-12-25T10:53:02.135Z,99811
2022-12-25T10:54:01.687Z,99811
2022-12-25T10:55:09.471Z,99811
2022-12-25T10:56:01.811Z,99811
2022-12-25T10:57:01.665Z,99811
2022-12-25T10:58:00.482Z,99807
2022-12-25T10:59:04.746Z,99807
2022-12-25T11:00:00.450Z,99807
2022-12-25T11:01:03.783Z,99807
2022-12-25T11:02:10.476Z,99807
2022-12-25T11:03:00.995Z,99809
2022-12-25T11:04:00.702Z,99809
2022-12-25T11:05:10.166Z,99809
2022-12-25T11:06:00.758Z,99809
2022-12-25T11:07:04.111Z,99809
2022-12-25T11:08:01.409Z,99804
2022-12-25T11:09:01.274Z,99804
2022-12-25T11:10:05.564Z,99804
2022-12-25T11:11:02.963Z,99804
2022-12-25T11:12:00.713Z,99804
2022-12-25T11:13:01.158Z,99801
2022-12-25T11:14:01.697Z,99801
2022-12-25T11:15:03.451Z,99801
2022-12-25T11:16:02.523Z,99801
2022-12-25T11:17:08.212Z,99801
2022-12-25T11:18:00.671Z,99797
2022-12-25T11:19:01.101Z,99797
2022-12-25T11:20:00.486Z,99797
2022-12-25T11:21:01.981Z,99797
2022-12-25T11:22:01.348Z,99797
2022-12-25T11:23:00.454Z,99790
2022-12-25T11:24:04.804Z,99790
2022-12-25T11:25:10.365Z,99790
2022-12-25T11:26:02.304Z,99790
2022-12-25T11:27:03.431Z,99790
2022-12-25T11:28:02.217Z,99787
2022-12-25T11:29:00.824Z,99787
2022-12-25T11:30:01.940Z,99787
2022-12-25T11:31:04.455Z,99787
2022-12-25T11:32:01.527Z,99787
2022-12-25T11:33:03.933Z,99787
2022-12-25T11:34:05.698Z,99787
2022-12-25T11:35:01.449Z,99787
2022-12-25T11:36:02.755Z,99787
2022-12-25T11:37:01.748Z,99787
2022-12-25T11:38:02.169Z,99793
2022-12-25T11:39:09.085Z,99793
2022-12-25T11:40:00.791Z,99793
2022-12-25T11:41:03.502Z,99793
2022-12-25T11:42:10.365Z,99793
2022-12-25T11:43:10.376Z,99789
2022-12-25T11:44:02.413Z,99789
2022-12-25T11:45:00.467Z,99789
2022-12-25T11:46:00.478Z,99789
2022-12-25T11:47:04.154Z,99789
2022-12-25T11:48:04.931Z,99782
2022-12-25T11:49:04.347Z,99782
2022-12-25T11:50:10.374Z,99782
2022-12-25T11:51:01.393Z,99782
2022-12-25T11:52:00.834Z,99782
2022-12-25T11:53:03.851Z,99770
2022-12-25T11:54:10.362Z,99770
2022-12-25T11:55:03.972Z,99770
2022-12-25T11:56:02.144Z,99770
2022-12-25T11:57:03.357Z,99770
2022-12-25T11:58:03.276Z,99760
2022-12-25T11:59:05.447Z,99760
2022-12-25T12:00:03.086Z,99760
2022-12-25T12:01:03.159Z,99760
2022-12-25T12:02:10.569Z,99760
2022-12-25T12:03:04.804Z,99757
2022-12-25T12:04:01.983Z,99757
2022-12-25T12:05:06.228Z,99757
2022-12-25T12:06:02.885Z,99757
2022-12-25T12:07:03.872Z,99757
2022-12-25T12:08:02.353Z,99751
2022-12-25T12:09:10.361Z,99751
2022-12-25T12:10:10.388Z,99751
2022-12-25T12:11:00.454Z,99751
2022-12-25T12:12:05.943Z,99751
2022-12-25T12:13:10.185Z,99753
2022-12-25T12:14:01.433Z,99753
2022-12-25T12:15:06.453Z,99753
2022-12-25T12:16:00.595Z,99753
2022-12-25T12:17:00.561Z,99753
2022-12-25T12:18:08.929Z,99755
2022-12-25T12:19:09.535Z,99755
2022-12-25T12:20:10.363Z,99755
2022-12-25T12:21:00.434Z,99755
2022-12-25T12:22:01.955Z,99755
2022-12-25T12:23:03.256Z,99744
2022-12-25T12:24:04.636Z,99744
2022-12-25T12:25:04.345Z,99744
2022-12-25T12:26:01.010Z,99744
2022-12-25T12:27:03.640Z,99744
2022-12-25T12:28:05.159Z,99743
2022-12-25T12:29:01.355Z,99743
2022-12-25T12:30:00.749Z,99743
2022-12-25T12:31:03.377Z,99743
2022-12-25T12:32:02.973Z,99743
2022-12-25T12:33:03.409Z,99729
2022-12-25T12:34:01.090Z,99729
2022-12-25T12:35:10.374Z,99729
2022-12-25T12:36:00.668Z,99729
2022-12-25T12:37:03.039Z,99729
2022-12-25T12:38:03.550Z,99735
2022-12-25T12:39:00.530Z,99735
2022-12-25T12:40:01.252Z,99735
2022-12-25T12:41:02.731Z,99735
2022-12-25T12:42:00.597Z,99735
2022-12-25T12:43:00.561Z,99728
2022-12-25T12:44:02.530Z,99728
2022-12-25T12:45:09.581Z,99728
2022-12-25T12:46:03.031Z,99728
2022-12-25T12:47:00.490Z,99728
2022-12-25T12:48:00.943Z,99730
2022-12-25T12:49:10.387Z,99730
2022-12-25T12:50:01.065Z,99730
2022-12-25T12:51:01.826Z,99730
2022-12-25T12:52:04.069Z,99730